Time,TemperatureF,DewpointF,PressureIn,WindDirection,WindDirectionDegrees,WindSpeedMPH,WindSpeedGustMPH,Humidity,HourlyPrecipIn,Conditions,Clouds,dailyrainin,SoftwareType,DateUTC
2013-03-23 00:00:00,46.2,33.5,29.94,WSW,242,10.0,19.0,61,0.00,,SCT,0.00,VWS V14.01,2013-03-23 07:00:00,
2013-03-23 00:05:00,46.1,33.8,29.93,WSW,247,12.0,23.0,62,0.00,,SCT,0.00,VWS V14.01,2013-03-23 07:05:00,
2013-03-23 00:10:00,46.2,33.5,29.93,SW,215,13.0,23.0,61,0.00,,SCT,0.00,VWS V14.01,2013-03-23 07:10:00,
2013-03-23 00:15:00,46.3,33.6,29.94,WSW,243,15.0,22.0,61,0.00,,SCT,0.00,VWS V14.01,2013-03-23 07:15:00,
2013-03-23 00:20:00,46.3,33.2,29.93,WSW,249,20.0,23.0,60,0.00,,SCT,0.00,VWS V14.01,2013-03-23 07:20:00,
2013-03-23 00:25:00,46.5,33.0,29.94,West,275,9.0,27.0,59,0.00,,SCT,0.00,VWS V14.01,2013-03-23 07:25:00,
2013-03-23 00:30:00,46.5,33.0,29.93,WSW,238,15.0,19.0,59,0.00,,SCT,0.00,VWS V14.01,2013-03-23 07:30:00,
2013-03-23 00:35:00,46.4,32.9,29.93,West,259,17.0,20.0,59,0.00,,SCT,0.00,VWS V14.01,2013-03-23 07:35:00,
2013-03-23 00:40:00,46.3,32.3,29.93,WSW,255,17.0,28.0,58,0.00,,SCT,0.00,VWS V14.01,2013-03-23 07:40:00,
2013-03-23 00:45:00,46.2,32.2,29.94,WSW,239,16.0,16.0,58,0.00,,SCT,0.00,VWS V14.01,2013-03-23 07:45:00,
2013-03-23 00:50:00,46.0,32.1,29.93,West,263,17.0,20.0,58,0.00,,SCT,0.00,VWS V14.01,2013-03-23 07:50:00,
2013-03-23 00:55:00,45.9,33.2,29.93,WSW,248,11.0,21.0,61,0.00,,SCT,0.00,VWS V14.01,2013-03-23 07:55:00,
2013-03-23 01:00:00,45.8,31.0,29.93,West,261,17.0,17.0,56,0.00,,SCT,0.00,VWS V14.01,2013-03-23 08:00:00,
2013-03-23 01:05:00,45.9,31.1,29.93,West,260,13.0,21.0,56,0.00,,SCT,0.00,VWS V14.01,2013-03-23 08:05:00,
2013-03-23 01:10:00,45.8,31.0,29.94,West,267,14.0,23.0,56,0.00,,SCT,0.00,VWS V14.01,2013-03-23 08:10:00,
2013-03-23 01:15:00,46.0,31.2,29.94,SW,225,15.0,23.0,56,0.00,,SCT,0.00,VWS V14.01,2013-03-23 08:15:00,
2013-03-23 01:20:00,46.1,31.3,29.93,WSW,249,18.0,26.0,56,0.00,,SCT,0.00,VWS V14.01,2013-03-23 08:20:00,
2013-03-23 01:25:00,46.1,30.9,29.93,WSW,247,14.0,26.0,55,0.00,,SCT,0.00,VWS V14.01,2013-03-23 08:25:00,
2013-03-23 01:30:00,46.1,30.4,29.93,SW,234,12.0,20.0,54,0.00,,SCT,0.00,VWS V14.01,2013-03-23 08:30:00,
2013-03-23 01:35:00,46.1,29.9,29.94,WSW,254,13.0,23.0,53,0.00,,SCT,0.00,VWS V14.01,2013-03-23 08:35:00,
2013-03-23 01:40:00,46.0,28.4,29.94,WSW,239,11.0,25.0,50,0.00,,SCT,0.00,VWS V14.01,2013-03-23 08:40:00,
2013-03-23 01:45:00,46.2,27.6,29.94,WSW,250,24.0,24.0,48,0.00,,SCT,0.00,VWS V14.01,2013-03-23 08:45:00,
2013-03-23 01:50:00,46.1,26.0,29.94,SW,229,17.0,27.0,45,0.00,,SCT,0.00,VWS V14.01,2013-03-23 08:50:00,
2013-03-23 01:55:00,46.4,23.4,29.94,WSW,255,15.0,27.0,40,0.00,,SCT,0.00,VWS V14.01,2013-03-23 08:55:00,
2013-03-23 02:00:00,46.7,22.5,29.94,SW,232,12.0,19.0,38,0.00,,SCT,0.00,VWS V14.01,2013-03-23 09:00:00,
2013-03-23 02:05:00,46.8,23.2,29.94,SW,231,12.0,22.0,39,0.00,,SCT,0.00,VWS V14.01,2013-03-23 09:05:00,
2013-03-23 02:10:00,46.8,21.9,29.94,SW,232,13.0,22.0,37,0.00,,SCT,0.00,VWS V14.01,2013-03-23 09:10:00,
2013-03-23 02:15:00,46.7,21.8,29.94,West,274,9.0,16.0,37,0.00,,SCT,0.00,VWS V14.01,2013-03-23 09:15:00,
2013-03-23 02:20:00,46.5,21.0,29.95,West,261,11.0,20.0,36,0.00,,SCT,0.00,VWS V14.01,2013-03-23 09:20:00,
2013-03-23 02:25:00,46.4,21.6,29.95,WSW,247,14.0,21.0,37,0.00,,SCT,0.00,VWS V14.01,2013-03-23 09:25:00,
2013-03-23 02:30:00,46.3,21.5,29.95,West,259,11.0,12.0,37,0.00,,SCT,0.00,VWS V14.01,2013-03-23 09:30:00,
2013-03-23 02:35:00,46.1,20.6,29.95,WSW,249,10.0,15.0,36,0.00,,SCT,0.00,VWS V14.01,2013-03-23 09:35:00,
2013-03-23 02:40:00,45.9,21.1,29.95,SW,226,13.0,15.0,37,0.00,,SCT,0.00,VWS V14.01,2013-03-23 09:40:00,
2013-03-23 02:45:00,45.8,20.4,29.95,West,273,8.0,11.0,36,0.00,,SCT,0.00,VWS V14.01,2013-03-23 09:45:00,
2013-03-23 02:50:00,45.5,19.5,29.95,West,267,5.0,12.0,35,0.00,,SCT,0.00,VWS V14.01,2013-03-23 09:50:00,
2013-03-23 02:55:00,45.4,20.0,29.95,West,279,5.0,12.0,36,0.00,,SCT,0.00,VWS V14.01,2013-03-23 09:55:00,
2013-03-23 03:00:00,45.2,21.1,29.95,West,265,4.0,7.0,38,0.00,,SCT,0.00,VWS V14.01,2013-03-23 10:00:00,
2013-03-23 03:05:00,44.9,19.6,29.95,West,265,4.0,7.0,36,0.00,,SCT,0.00,VWS V14.01,2013-03-23 10:05:00,
2013-03-23 03:10:00,44.1,19.5,29.95,WSW,253,7.0,7.0,37,0.00,,SCT,0.00,VWS V14.01,2013-03-23 10:10:00,
2013-03-23 03:15:00,43.4,20.1,29.94,West,263,7.0,11.0,39,0.00,,SCT,0.00,VWS V14.01,2013-03-23 10:15:00,
2013-03-23 03:20:00,42.7,20.7,29.94,WSW,242,7.0,12.0,41,0.00,,SCT,0.00,VWS V14.01,2013-03-23 10:20:00,
2013-03-23 03:25:00,42.2,21.3,29.94,WSW,254,10.0,12.0,43,0.00,,SCT,0.00,VWS V14.01,2013-03-23 10:25:00,
2013-03-23 03:30:00,41.9,19.9,29.93,West,261,7.0,8.0,41,0.00,,SCT,0.00,VWS V14.01,2013-03-23 10:30:00,
2013-03-23 03:35:00,42.0,19.5,29.93,WSW,247,4.0,12.0,40,0.00,,SCT,0.00,VWS V14.01,2013-03-23 10:35:00,
2013-03-23 03:40:00,42.0,19.5,29.93,West,271,5.0,12.0,40,0.00,,SCT,0.00,VWS V14.01,2013-03-23 10:40:00,
2013-03-23 03:45:00,42.0,20.0,29.93,West,267,5.0,5.0,41,0.00,,SCT,0.00,VWS V14.01,2013-03-23 10:45:00,
2013-03-23 03:50:00,41.9,19.4,29.93,West,269,4.0,8.0,40,0.00,,SCT,0.00,VWS V14.01,2013-03-23 10:50:00,
2013-03-23 03:55:00,41.6,19.7,29.93,WSW,252,6.0,8.0,41,0.00,,SCT,0.00,VWS V14.01,2013-03-23 10:55:00,
2013-03-23 04:00:00,41.2,19.3,29.94,West,261,4.0,5.0,41,0.00,,SCT,0.00,VWS V14.01,2013-03-23 11:00:00,
2013-03-23 04:05:00,40.8,19.5,29.94,West,269,0.0,5.0,42,0.00,,SCT,0.00,VWS V14.01,2013-03-23 11:05:00,
2013-03-23 04:10:00,40.2,17.2,29.94,West,273,4.0,5.0,39,0.00,,SCT,0.00,VWS V14.01,2013-03-23 11:10:00,
2013-03-23 04:15:00,39.6,18.4,29.94,West,274,4.0,5.0,42,0.00,,SCT,0.00,VWS V14.01,2013-03-23 11:15:00,
2013-03-23 04:20:00,39.3,18.7,29.94,WNW,283,2.0,5.0,43,0.00,,SCT,0.00,VWS V14.01,2013-03-23 11:20:00,
2013-03-23 04:25:00,38.7,18.1,29.94,WNW,283,4.0,5.0,43,0.00,,SCT,0.00,VWS V14.01,2013-03-23 11:25:00,
2013-03-23 04:30:00,37.9,18.0,29.94,WNW,283,1.0,1.0,44,0.00,,SCT,0.00,VWS V14.01,2013-03-23 11:30:00,
2013-03-23 04:35:00,37.2,17.3,29.95,WSW,252,0.0,4.0,44,0.00,,SCT,0.00,VWS V14.01,2013-03-23 11:35:00,
2013-03-23 04:40:00,36.7,17.4,29.95,WNW,286,2.0,6.0,45,0.00,,SCT,0.00,VWS V14.01,2013-03-23 11:40:00,
2013-03-23 04:45:00,36.4,17.1,29.94,West,281,4.0,4.0,45,0.00,,SCT,0.00,VWS V14.01,2013-03-23 11:45:00,
2013-03-23 04:50:00,36.2,17.4,29.95,WNW,290,5.0,5.0,46,0.00,,SCT,0.00,VWS V14.01,2013-03-23 11:50:00,
2013-03-23 04:55:00,36.1,17.8,29.96,NW,315,0.0,5.0,47,0.00,,SCT,0.00,VWS V14.01,2013-03-23 11:55:00,
2013-03-23 05:00:00,36.3,17.0,29.96,NW,317,0.0,0.0,45,0.00,,SCT,0.00,VWS V14.01,2013-03-23 12:00:00,
2013-03-23 05:05:00,36.8,18.0,29.96,NW,316,1.0,5.0,46,0.00,,SCT,0.00,VWS V14.01,2013-03-23 12:05:00,
2013-03-23 05:10:00,37.0,17.6,29.97,NW,316,1.0,5.0,45,0.00,,SCT,0.00,VWS V14.01,2013-03-23 12:10:00,
2013-03-23 05:15:00,36.9,19.1,29.96,WNW,300,1.0,1.0,48,0.00,,SCT,0.00,VWS V14.01,2013-03-23 12:15:00,
2013-03-23 05:20:00,37.0,18.2,29.96,WNW,299,1.0,4.0,46,0.00,,SCT,0.00,VWS V14.01,2013-03-23 12:20:00,
2013-03-23 05:25:00,37.0,18.7,29.97,WNW,300,1.0,5.0,47,0.00,,SCT,0.00,VWS V14.01,2013-03-23 12:25:00,
2013-03-23 05:30:00,37.0,18.2,29.97,WNW,292,4.0,5.0,46,0.00,,SCT,0.00,VWS V14.01,2013-03-23 12:30:00,
2013-03-23 05:35:00,37.1,18.2,29.97,WNW,291,0.0,6.0,46,0.00,,SCT,0.00,VWS V14.01,2013-03-23 12:35:00,
2013-03-23 05:40:00,37.1,18.2,29.98,WNW,292,0.0,6.0,46,0.00,,SCT,0.00,VWS V14.01,2013-03-23 12:40:00,
2013-03-23 05:45:00,37.1,18.8,29.98,WNW,292,0.0,0.0,47,0.00,,SCT,0.00,VWS V14.01,2013-03-23 12:45:00,
2013-03-23 05:50:00,37.1,18.2,29.98,WNW,292,0.0,1.0,46,0.00,,SCT,0.00,VWS V14.01,2013-03-23 12:50:00,
2013-03-23 05:56:00,36.8,19.0,29.98,WNW,292,0.0,1.0,48,0.00,,SCT,0.00,VWS V14.01,2013-03-23 12:56:00,
2013-03-23 06:01:00,36.4,19.5,29.98,WNW,292,0.0,1.0,50,0.00,,SCT,0.00,VWS V14.01,2013-03-23 13:01:00,
2013-03-23 06:06:00,36.1,19.3,29.98,WNW,292,0.0,1.0,50,0.00,,SCT,0.00,VWS V14.01,2013-03-23 13:06:00,
2013-03-23 06:11:00,35.9,19.1,29.99,WNW,292,0.0,1.0,50,0.00,,SCT,0.00,VWS V14.01,2013-03-23 13:11:00,
2013-03-23 06:16:00,35.7,19.4,29.99,WNW,292,0.0,0.0,51,0.00,,SCT,0.00,VWS V14.01,2013-03-23 13:16:00,
2013-03-23 06:21:00,35.5,18.7,29.99,WNW,292,0.0,2.0,50,0.00,,SCT,0.00,VWS V14.01,2013-03-23 13:21:00,
2013-03-23 06:26:00,35.4,19.1,29.99,WNW,292,1.0,2.0,51,0.00,,SCT,0.00,VWS V14.01,2013-03-23 13:26:00,
2013-03-23 06:31:00,35.4,18.6,29.99,WNW,292,0.0,1.0,50,0.00,,SCT,0.00,VWS V14.01,2013-03-23 13:31:00,
2013-03-23 06:36:00,35.4,18.6,29.99,WNW,294,2.0,4.0,50,0.00,,SCT,0.00,VWS V14.01,2013-03-23 13:36:00,
2013-03-23 06:41:00,35.4,18.1,30.00,WNW,294,0.0,4.0,49,0.00,,SCT,0.00,VWS V14.01,2013-03-23 13:41:00,
2013-03-23 06:46:00,35.5,18.2,30.00,WNW,294,0.0,0.0,49,0.00,,SCT,0.00,VWS V14.01,2013-03-23 13:46:00,
2013-03-23 06:51:00,35.6,18.3,30.00,WNW,294,0.0,1.0,49,0.00,,SCT,0.00,VWS V14.01,2013-03-23 13:51:00,
2013-03-23 06:57:00,35.6,18.8,30.00,WNW,294,1.0,2.0,50,0.00,,SCT,0.00,VWS V14.01,2013-03-23 13:57:00,
2013-03-23 07:02:00,35.5,18.7,30.00,WNW,294,1.0,1.0,50,0.00,,SCT,0.00,VWS V14.01,2013-03-23 14:02:00,
2013-03-23 07:07:00,35.5,19.6,30.00,North,5,2.0,4.0,52,0.00,,SCT,0.00,VWS V14.01,2013-03-23 14:07:00,
2013-03-23 07:12:00,36.1,19.3,30.00,NE,49,4.0,4.0,50,0.00,,SCT,0.00,VWS V14.01,2013-03-23 14:12:00,
2013-03-23 07:17:00,37.1,18.8,30.00,ENE,69,5.0,6.0,47,0.00,,SCT,0.00,VWS V14.01,2013-03-23 14:17:00,
2013-03-23 07:22:00,38.1,20.2,30.00,ENE,74,5.0,6.0,48,0.00,,SCT,0.00,VWS V14.01,2013-03-23 14:22:00,
2013-03-23 07:27:00,38.7,20.7,30.01,East,81,4.0,6.0,48,0.00,,SCT,0.00,VWS V14.01,2013-03-23 14:27:00,
2013-03-23 07:32:00,38.9,22.3,30.01,ENE,75,5.0,6.0,51,0.00,,SCT,0.00,VWS V14.01,2013-03-23 14:32:00,
2013-03-23 07:37:00,38.9,21.9,30.01,East,82,4.0,6.0,50,0.00,,SCT,0.00,VWS V14.01,2013-03-23 14:37:00,
2013-03-23 07:42:00,39.2,21.2,30.02,East,84,4.0,8.0,48,0.00,,SCT,0.00,VWS V14.01,2013-03-23 14:42:00,
2013-03-23 07:47:00,40.2,21.1,30.02,ESE,105,7.0,8.0,46,0.00,,SCT,0.00,VWS V14.01,2013-03-23 14:47:00,
2013-03-23 07:52:00,41.9,19.4,30.02,East,88,6.0,8.0,40,0.00,,SCT,0.00,VWS V14.01,2013-03-23 14:52:00,
2013-03-23 07:57:00,44.0,19.4,30.02,East,86,4.0,8.0,37,0.00,,SCT,0.00,VWS V14.01,2013-03-23 14:57:00,
2013-03-23 08:02:00,46.1,20.6,30.02,ESE,105,8.0,8.0,36,0.00,,SCT,0.00,VWS V14.01,2013-03-23 15:02:00,
2013-03-23 08:07:00,48.0,20.3,30.02,ESE,111,5.0,9.0,33,0.00,,SCT,0.00,VWS V14.01,2013-03-23 15:07:00,
2013-03-23 08:12:00,49.8,21.1,30.03,East,86,5.0,11.0,32,0.00,,SCT,0.00,VWS V14.01,2013-03-23 15:12:00,
2013-03-23 08:17:00,51.5,21.1,30.03,East,96,7.0,9.0,30,0.00,,SCT,0.00,VWS V14.01,2013-03-23 15:17:00,
2013-03-23 08:22:00,52.9,23.1,30.03,ESE,115,5.0,9.0,31,0.00,,SCT,0.00,VWS V14.01,2013-03-23 15:22:00,
2013-03-23 08:27:00,54.1,20.9,30.03,ESE,107,4.0,9.0,27,0.00,,SCT,0.00,VWS V14.01,2013-03-23 15:27:00,
2013-03-23 08:32:00,55.1,21.7,30.03,ESE,102,8.0,9.0,27,0.00,,SCT,0.00,VWS V14.01,2013-03-23 15:32:00,
2013-03-23 08:37:00,56.0,20.7,30.03,ESE,105,7.0,13.0,25,0.00,,SCT,0.00,VWS V14.01,2013-03-23 15:37:00,
2013-03-23 08:42:00,56.8,21.4,30.03,ESE,104,7.0,13.0,25,0.00,,SCT,0.00,VWS V14.01,2013-03-23 15:42:00,
2013-03-23 08:47:00,57.4,19.9,30.04,East,96,8.0,13.0,23,0.00,,SCT,0.00,VWS V14.01,2013-03-23 15:47:00,
2013-03-23 08:52:00,57.7,19.1,30.04,East,86,11.0,13.0,22,0.00,,SCT,0.00,VWS V14.01,2013-03-23 15:52:00,
2013-03-23 08:57:00,58.2,21.6,30.04,East,80,4.0,13.0,24,0.00,,SCT,0.00,VWS V14.01,2013-03-23 15:57:00,
2013-03-23 09:02:00,58.7,22.0,30.05,ENE,78,6.0,10.0,24,0.00,,SCT,0.00,VWS V14.01,2013-03-23 16:02:00,
2013-03-23 09:07:00,59.0,19.1,30.05,East,95,8.0,13.0,21,0.00,,SCT,0.00,VWS V14.01,2013-03-23 16:07:00,
2013-03-23 09:12:00,58.9,19.1,30.05,ESE,119,11.0,15.0,21,0.00,,SCT,0.00,VWS V14.01,2013-03-23 16:12:00,
2013-03-23 09:17:00,58.8,20.1,30.05,East,82,15.0,15.0,22,0.00,,SCT,0.00,VWS V14.01,2013-03-23 16:17:00,
2013-03-23 09:22:00,58.7,21.0,30.05,East,82,14.0,15.0,23,0.00,,SCT,0.00,VWS V14.01,2013-03-23 16:22:00,
2013-03-23 09:27:00,58.5,21.9,30.05,ESE,103,12.0,15.0,24,0.00,,SCT,0.00,VWS V14.01,2013-03-23 16:27:00,
2013-03-23 09:32:00,58.2,20.6,30.06,ENE,78,8.0,13.0,23,0.00,,SCT,0.00,VWS V14.01,2013-03-23 16:32:00,
2013-03-23 09:37:00,58.1,22.5,30.06,East,92,13.0,17.0,25,0.00,,SCT,0.00,VWS V14.01,2013-03-23 16:37:00,
2013-03-23 09:42:00,58.2,21.6,30.06,East,92,11.0,18.0,24,0.00,,SCT,0.00,VWS V14.01,2013-03-23 16:42:00,
2013-03-23 09:47:00,58.3,22.6,30.07,ENE,59,11.0,18.0,25,0.00,,SCT,0.00,VWS V14.01,2013-03-23 16:47:00,
2013-03-23 09:53:00,58.6,22.9,30.07,East,90,11.0,18.0,25,0.00,,SCT,0.00,VWS V14.01,2013-03-23 16:53:00,
2013-03-23 09:57:00,58.7,24.8,30.07,East,100,13.0,18.0,27,0.00,,SCT,0.00,VWS V14.01,2013-03-23 16:57:00,
2013-03-23 10:02:00,59.0,26.8,30.07,ESE,115,8.0,13.0,29,0.00,,SCT,0.00,VWS V14.01,2013-03-23 17:02:00,
2013-03-23 10:08:00,59.2,24.4,30.07,ENE,70,7.0,13.0,26,0.00,,SCT,0.00,VWS V14.01,2013-03-23 17:08:00,
2013-03-23 10:13:00,59.1,24.3,30.08,East,87,10.0,13.0,26,0.00,,SCT,0.00,VWS V14.01,2013-03-23 17:13:00,
2013-03-23 10:18:00,58.9,24.1,30.08,East,80,8.0,14.0,26,0.00,,SCT,0.00,VWS V14.01,2013-03-23 17:18:00,
2013-03-23 10:23:00,58.9,24.1,30.08,ENE,58,12.0,15.0,26,0.00,,SCT,0.00,VWS V14.01,2013-03-23 17:23:00,
2013-03-23 10:28:00,59.1,24.3,30.08,East,94,13.0,19.0,26,0.00,,SCT,0.00,VWS V14.01,2013-03-23 17:28:00,
2013-03-23 10:33:00,59.2,22.5,30.08,ENE,75,12.0,19.0,24,0.00,,SCT,0.00,VWS V14.01,2013-03-23 17:33:00,
2013-03-23 10:38:00,59.2,23.4,30.08,NE,46,11.0,20.0,25,0.00,,SCT,0.00,VWS V14.01,2013-03-23 17:38:00,
2013-03-23 10:43:00,59.3,23.5,30.09,ENE,75,6.0,20.0,25,0.00,,SCT,0.00,VWS V14.01,2013-03-23 17:43:00,
2013-03-23 10:48:00,59.4,23.6,30.08,East,97,12.0,18.0,25,0.00,,SCT,0.00,VWS V14.01,2013-03-23 17:48:00,
2013-03-23 10:53:00,59.5,22.7,30.08,ENE,61,11.0,18.0,24,0.00,,SCT,0.00,VWS V14.01,2013-03-23 17:53:00,
2013-03-23 10:58:00,59.5,19.6,30.09,East,98,18.0,18.0,21,0.00,,SCT,0.00,VWS V14.01,2013-03-23 17:58:00,
2013-03-23 11:03:00,59.5,21.7,30.09,East,84,8.0,18.0,23,0.00,,SCT,0.00,VWS V14.01,2013-03-23 18:03:00,
2013-03-23 11:08:00,60.0,22.1,30.09,ENE,78,10.0,18.0,23,0.00,,SCT,0.00,VWS V14.01,2013-03-23 18:08:00,
2013-03-23 11:13:00,60.2,21.2,30.09,East,80,13.0,18.0,22,0.00,,SCT,0.00,VWS V14.01,2013-03-23 18:13:00,
2013-03-23 11:18:00,60.4,20.3,30.08,East,86,10.0,17.0,21,0.00,,SCT,0.00,VWS V14.01,2013-03-23 18:18:00,
2013-03-23 11:23:00,60.6,21.6,30.08,NE,54,15.0,19.0,22,0.00,,SCT,0.00,VWS V14.01,2013-03-23 18:23:00,
2013-03-23 11:28:00,61.0,20.8,30.08,East,84,7.0,19.0,21,0.00,,SCT,0.00,VWS V14.01,2013-03-23 18:28:00,
2013-03-23 11:33:00,61.2,23.1,30.08,East,94,8.0,16.0,23,0.00,,SCT,0.00,VWS V14.01,2013-03-23 18:33:00,
2013-03-23 11:38:00,61.2,19.8,30.08,East,88,11.0,18.0,20,0.00,,SCT,0.00,VWS V14.01,2013-03-23 18:38:00,
2013-03-23 11:43:00,60.8,20.6,30.09,ENE,64,13.0,20.0,21,0.00,,SCT,0.00,VWS V14.01,2013-03-23 18:43:00,
2013-03-23 11:48:00,60.8,20.6,30.09,ENE,63,15.0,15.0,21,0.00,,SCT,0.00,VWS V14.01,2013-03-23 18:48:00,
2013-03-23 11:53:00,60.9,18.4,30.08,ENE,65,15.0,19.0,19,0.00,,SCT,0.00,VWS V14.01,2013-03-23 18:53:00,
2013-03-23 11:58:00,60.9,21.8,30.08,East,83,10.0,19.0,22,0.00,,SCT,0.00,VWS V14.01,2013-03-23 18:58:00,
2013-03-23 12:03:00,61.0,19.7,30.08,East,84,12.0,21.0,20,0.00,,SCT,0.00,VWS V14.01,2013-03-23 19:03:00,
2013-03-23 12:08:00,61.2,18.6,30.08,ENE,64,15.0,21.0,19,0.00,,SCT,0.00,VWS V14.01,2013-03-23 19:08:00,
2013-03-23 12:13:00,61.2,18.6,30.08,NE,56,11.0,21.0,19,0.00,,SCT,0.00,VWS V14.01,2013-03-23 19:13:00,
2013-03-23 12:18:00,61.2,22.1,30.08,NE,53,10.0,14.0,22,0.00,,SCT,0.00,VWS V14.01,2013-03-23 19:18:00,
2013-03-23 12:23:00,61.7,22.5,30.08,ENE,69,7.0,17.0,22,0.00,,SCT,0.00,VWS V14.01,2013-03-23 19:23:00,
2013-03-23 12:28:00,61.9,20.4,30.08,East,79,7.0,21.0,20,0.00,,SCT,0.00,VWS V14.01,2013-03-23 19:28:00,
2013-03-23 12:33:00,61.5,22.3,30.08,East,85,11.0,15.0,22,0.00,,SCT,0.00,VWS V14.01,2013-03-23 19:33:00,
2013-03-23 12:38:00,61.6,23.5,30.08,ENE,69,18.0,18.0,23,0.00,,SCT,0.00,VWS V14.01,2013-03-23 19:38:00,
2013-03-23 12:43:00,61.8,22.6,30.08,East,96,11.0,20.0,22,0.00,,SCT,0.00,VWS V14.01,2013-03-23 19:43:00,
2013-03-23 12:48:00,61.7,23.5,30.08,East,90,12.0,17.0,23,0.00,,SCT,0.00,VWS V14.01,2013-03-23 19:48:00,
2013-03-23 12:53:00,61.8,22.6,30.08,East,90,12.0,19.0,22,0.00,,SCT,0.00,VWS V14.01,2013-03-23 19:53:00,
2013-03-23 12:58:00,62.3,24.1,30.08,East,82,6.0,19.0,23,0.00,,SCT,0.00,VWS V14.01,2013-03-23 19:58:00,
2013-03-23 13:03:00,62.5,25.2,30.08,ESE,102,9.0,14.0,24,0.00,,SCT,0.00,VWS V14.01,2013-03-23 20:03:00,
2013-03-23 13:08:00,62.4,24.1,30.08,East,89,6.0,19.0,23,0.00,,SCT,0.00,VWS V14.01,2013-03-23 20:08:00,
2013-03-23 13:13:00,62.4,25.2,30.08,East,90,14.0,19.0,24,0.00,,SCT,0.00,VWS V14.01,2013-03-23 20:13:00,
2013-03-23 13:18:00,62.8,23.4,30.07,East,84,8.0,16.0,22,0.00,,SCT,0.00,VWS V14.01,2013-03-23 20:18:00,
2013-03-23 13:23:00,62.8,25.5,30.08,East,96,11.0,16.0,24,0.00,,SCT,0.00,VWS V14.01,2013-03-23 20:23:00,
2013-03-23 13:28:00,63.1,24.7,30.08,SE,134,8.0,16.0,23,0.00,,SCT,0.00,VWS V14.01,2013-03-23 20:28:00,
2013-03-23 13:33:00,63.3,23.8,30.07,ESE,104,12.0,13.0,22,0.00,,SCT,0.00,VWS V14.01,2013-03-23 20:33:00,
2013-03-23 13:38:00,63.5,25.1,30.08,East,100,12.0,14.0,23,0.00,,SCT,0.00,VWS V14.01,2013-03-23 20:38:00,
2013-03-23 13:43:00,63.9,25.4,30.08,ESE,117,5.0,14.0,23,0.00,,SCT,0.00,VWS V14.01,2013-03-23 20:43:00,
2013-03-23 13:48:00,63.9,24.3,30.08,East,88,8.0,14.0,22,0.00,,SCT,0.00,VWS V14.01,2013-03-23 20:48:00,
2013-03-23 13:53:00,64.1,25.6,30.08,East,97,8.0,14.0,23,0.00,,SCT,0.00,VWS V14.01,2013-03-23 20:53:00,
2013-03-23 13:58:00,64.3,24.7,30.08,ESE,117,6.0,14.0,22,0.00,,SCT,0.00,VWS V14.01,2013-03-23 20:58:00,
2013-03-23 14:03:00,64.5,24.8,30.08,ESE,108,5.0,13.0,22,0.00,,SCT,0.00,VWS V14.01,2013-03-23 21:03:00,
2013-03-23 14:08:00,64.9,26.2,30.07,East,101,7.0,14.0,23,0.00,,SCT,0.00,VWS V14.01,2013-03-23 21:08:00,
2013-03-23 14:13:00,64.7,27.1,30.07,NE,53,11.0,14.0,24,0.00,,SCT,0.00,VWS V14.01,2013-03-23 21:13:00,
2013-03-23 14:18:00,64.7,25.0,30.07,East,96,5.0,14.0,22,0.00,,SCT,0.00,VWS V14.01,2013-03-23 21:18:00,
2013-03-23 14:23:00,64.5,23.7,30.07,ESE,105,7.0,14.0,21,0.00,,SCT,0.00,VWS V14.01,2013-03-23 21:23:00,
2013-03-23 14:28:00,64.2,22.3,30.07,ESE,121,1.0,14.0,20,0.00,,SCT,0.00,VWS V14.01,2013-03-23 21:28:00,
2013-03-23 14:33:00,64.2,25.7,30.07,ENE,65,12.0,12.0,23,0.00,,SCT,0.00,VWS V14.01,2013-03-23 21:33:00,
2013-03-23 14:38:00,64.3,23.6,30.07,East,85,6.0,12.0,21,0.00,,SCT,0.00,VWS V14.01,2013-03-23 21:38:00,
2013-03-23 14:44:00,64.5,22.6,30.07,ESE,115,9.0,13.0,20,0.00,,SCT,0.00,VWS V14.01,2013-03-23 21:44:00,
2013-03-23 14:49:00,64.3,23.6,30.06,ENE,72,7.0,13.0,21,0.00,,SCT,0.00,VWS V14.01,2013-03-23 21:49:00,
2013-03-23 14:54:00,64.7,23.9,30.06,ENE,69,6.0,13.0,21,0.00,,SCT,0.00,VWS V14.01,2013-03-23 21:54:00,
2013-03-23 14:59:00,65.0,23.0,30.06,East,93,8.0,13.0,20,0.00,,SCT,0.00,VWS V14.01,2013-03-23 21:59:00,
2013-03-23 15:04:00,64.7,21.5,30.06,East,84,6.0,10.0,19,0.00,,SCT,0.00,VWS V14.01,2013-03-23 22:04:00,
2013-03-23 15:09:00,64.6,22.6,30.06,ENE,76,3.0,10.0,20,0.00,,SCT,0.00,VWS V14.01,2013-03-23 22:09:00,
2013-03-23 15:14:00,64.6,23.8,30.06,ENE,72,10.0,12.0,21,0.00,,SCT,0.00,VWS V14.01,2013-03-23 22:14:00,
2013-03-23 15:19:00,64.6,22.6,30.05,NE,43,5.0,8.0,20,0.00,,SCT,0.00,VWS V14.01,2013-03-23 22:19:00,
2013-03-23 15:24:00,64.7,22.7,30.05,ENE,67,7.0,10.0,20,0.00,,SCT,0.00,VWS V14.01,2013-03-23 22:24:00,
2013-03-23 15:29:00,65.1,23.1,30.05,NE,51,6.0,14.0,20,0.00,,SCT,0.00,VWS V14.01,2013-03-23 22:29:00,
2013-03-23 15:34:00,65.2,23.1,30.05,SE,141,1.0,8.0,20,0.00,,SCT,0.00,VWS V14.01,2013-03-23 22:34:00,
2013-03-23 15:39:00,65.3,23.2,30.05,East,94,6.0,11.0,20,0.00,,SCT,0.00,VWS V14.01,2013-03-23 22:39:00,
2013-03-23 15:44:00,65.2,24.3,30.05,East,82,4.0,11.0,21,0.00,,SCT,0.00,VWS V14.01,2013-03-23 22:44:00,
2013-03-23 15:49:00,65.0,23.0,30.05,ENE,76,7.0,11.0,20,0.00,,SCT,0.00,VWS V14.01,2013-03-23 22:49:00,
2013-03-23 15:54:00,64.7,22.7,30.05,East,95,5.0,11.0,20,0.00,,SCT,0.00,VWS V14.01,2013-03-23 22:54:00,
2013-03-23 15:59:00,64.7,23.9,30.05,NE,55,6.0,11.0,21,0.00,,SCT,0.00,VWS V14.01,2013-03-23 22:59:00,
2013-03-23 16:04:00,64.7,22.7,30.04,East,84,5.0,8.0,20,0.00,,SCT,0.00,VWS V14.01,2013-03-23 23:04:00,
2013-03-23 16:09:00,64.7,23.9,30.04,ENE,57,3.0,10.0,21,0.00,,SCT,0.00,VWS V14.01,2013-03-23 23:09:00,
2013-03-23 16:14:00,65.0,23.0,30.04,ESE,108,6.0,10.0,20,0.00,,SCT,0.00,VWS V14.01,2013-03-23 23:14:00,
2013-03-23 16:19:00,64.8,22.8,30.04,ESE,112,6.0,11.0,20,0.00,,SCT,0.00,VWS V14.01,2013-03-23 23:19:00,
2013-03-23 16:24:00,64.4,23.6,30.04,East,100,8.0,13.0,21,0.00,,SCT,0.00,VWS V14.01,2013-03-23 23:24:00,
2013-03-23 16:29:00,64.1,23.4,30.04,ESE,120,11.0,13.0,21,0.00,,SCT,0.00,VWS V14.01,2013-03-23 23:29:00,
2013-03-23 16:34:00,64.3,23.6,30.03,NE,52,6.0,6.0,21,0.00,,SCT,0.00,VWS V14.01,2013-03-23 23:34:00,
2013-03-23 16:39:00,64.3,22.4,30.03,ESE,115,4.0,8.0,20,0.00,,SCT,0.00,VWS V14.01,2013-03-23 23:39:00,
2013-03-23 16:44:00,63.8,23.1,30.03,East,94,2.0,9.0,21,0.00,,SCT,0.00,VWS V14.01,2013-03-23 23:44:00,
2013-03-23 16:49:00,63.3,21.6,30.03,ESE,111,6.0,7.0,20,0.00,,SCT,0.00,VWS V14.01,2013-03-23 23:49:00,
2013-03-23 16:54:00,62.5,22.1,30.03,SE,126,6.0,9.0,21,0.00,,SCT,0.00,VWS V14.01,2013-03-23 23:54:00,
2013-03-23 16:59:00,62.0,22.8,30.03,East,90,7.0,9.0,22,0.00,,SCT,0.00,VWS V14.01,2013-03-23 23:59:00,
2013-03-23 17:04:00,61.7,23.5,30.03,SE,130,4.0,9.0,23,0.00,,SCT,0.00,VWS V14.01,2013-03-24 00:04:00,
2013-03-23 17:09:00,61.5,22.3,30.03,SE,130,4.0,9.0,22,0.00,,SCT,0.00,VWS V14.01,2013-03-24 00:09:00,
2013-03-23 17:14:00,61.3,22.2,30.03,ESE,105,2.0,9.0,22,0.00,,SCT,0.00,VWS V14.01,2013-03-24 00:14:00,
2013-03-23 17:19:00,61.0,23.0,30.03,ESE,103,2.0,7.0,23,0.00,,SCT,0.00,VWS V14.01,2013-03-24 00:19:00,
2013-03-23 17:24:00,60.8,22.8,30.03,East,99,5.0,7.0,23,0.00,,SCT,0.00,VWS V14.01,2013-03-24 00:24:00,
2013-03-23 17:29:00,60.6,22.6,30.04,ESE,111,0.0,7.0,23,0.00,,SCT,0.00,VWS V14.01,2013-03-24 00:29:00,
2013-03-23 17:34:00,60.3,22.4,30.04,ESE,117,6.0,7.0,23,0.00,,SCT,0.00,VWS V14.01,2013-03-24 00:34:00,
2013-03-23 17:39:00,60.1,23.2,30.04,ESE,123,6.0,7.0,24,0.00,,SCT,0.00,VWS V14.01,2013-03-24 00:39:00,
2013-03-23 17:44:00,59.8,22.0,30.03,ESE,108,5.0,7.0,23,0.00,,SCT,0.00,VWS V14.01,2013-03-24 00:44:00,
2013-03-23 17:49:00,59.6,21.8,30.03,ESE,113,5.0,7.0,23,0.00,,SCT,0.00,VWS V14.01,2013-03-24 00:49:00,
2013-03-23 17:54:00,59.4,22.6,30.03,ESE,106,2.0,7.0,24,0.00,,SCT,0.00,VWS V14.01,2013-03-24 00:54:00,
2013-03-23 17:59:00,59.3,22.5,30.04,East,96,1.0,7.0,24,0.00,,SCT,0.00,VWS V14.01,2013-03-24 00:59:00,
2013-03-23 18:04:00,59.1,22.4,30.04,ESE,116,2.0,7.0,24,0.00,,SCT,0.00,VWS V14.01,2013-03-24 01:04:00,
2013-03-23 18:09:00,59.0,23.2,30.04,ESE,117,0.0,7.0,25,0.00,,SCT,0.00,VWS V14.01,2013-03-24 01:09:00,
2013-03-23 18:14:00,58.9,24.1,30.04,ESE,105,4.0,7.0,26,0.00,,SCT,0.00,VWS V14.01,2013-03-24 01:14:00,
2013-03-23 18:19:00,58.5,21.9,30.04,ESE,105,0.0,5.0,24,0.00,,SCT,0.00,VWS V14.01,2013-03-24 01:19:00,
2013-03-23 18:24:00,58.2,23.5,30.04,ESE,105,4.0,5.0,26,0.00,,SCT,0.00,VWS V14.01,2013-03-24 01:24:00,
2013-03-23 18:29:00,58.0,23.3,30.04,East,85,1.0,5.0,26,0.00,,SCT,0.00,VWS V14.01,2013-03-24 01:29:00,
2013-03-23 18:34:00,57.7,23.1,30.04,ESE,111,2.0,6.0,26,0.00,,SCT,0.00,VWS V14.01,2013-03-24 01:34:00,
2013-03-23 18:39:00,57.5,24.7,30.05,ESE,105,0.0,6.0,28,0.00,,SCT,0.00,VWS V14.01,2013-03-24 01:39:00,
2013-03-23 18:44:00,57.1,25.2,30.05,ESE,105,0.0,6.0,29,0.00,,SCT,0.00,VWS V14.01,2013-03-24 01:44:00,
2013-03-23 18:49:00,56.6,23.9,30.04,ESE,105,0.0,1.0,28,0.00,,SCT,0.00,VWS V14.01,2013-03-24 01:49:00,
2013-03-23 18:54:00,56.0,25.0,30.05,ESE,105,0.0,2.0,30,0.00,,SCT,0.00,VWS V14.01,2013-03-24 01:54:00,
2013-03-23 18:59:00,54.9,24.1,30.05,ESE,105,1.0,4.0,30,0.00,,SCT,0.00,VWS V14.01,2013-03-24 01:59:00,
2013-03-23 19:04:00,53.7,23.8,30.05,ESE,107,2.0,5.0,31,0.00,,SCT,0.00,VWS V14.01,2013-03-24 02:04:00,
2013-03-23 19:09:00,52.8,23.8,30.04,ESE,108,2.0,5.0,32,0.00,,SCT,0.00,VWS V14.01,2013-03-24 02:09:00,
2013-03-23 19:14:00,52.1,23.9,30.04,ESE,105,4.0,6.0,33,0.00,,SCT,0.00,VWS V14.01,2013-03-24 02:14:00,
2013-03-23 19:19:00,51.2,25.2,30.05,ESE,105,2.0,4.0,36,0.00,,SCT,0.00,VWS V14.01,2013-03-24 02:19:00,
2013-03-23 19:24:00,50.2,22.9,30.05,ESE,107,2.0,4.0,34,0.00,,SCT,0.00,VWS V14.01,2013-03-24 02:24:00,
2013-03-23 19:29:00,49.4,23.6,30.05,ESE,107,4.0,5.0,36,0.00,,SCT,0.00,VWS V14.01,2013-03-24 02:29:00,
2013-03-23 19:34:00,48.5,22.8,30.05,East,94,4.0,5.0,36,0.00,,SCT,0.00,VWS V14.01,2013-03-24 02:34:00,
2013-03-23 19:39:00,47.5,25.6,30.05,East,94,4.0,5.0,42,0.00,,SCT,0.00,VWS V14.01,2013-03-24 02:39:00,
2013-03-23 19:44:00,46.6,25.3,30.06,East,94,1.0,5.0,43,0.00,,SCT,0.00,VWS V14.01,2013-03-24 02:44:00,
2013-03-23 19:49:00,45.8,25.1,30.06,East,94,1.0,4.0,44,0.00,,SCT,0.00,VWS V14.01,2013-03-24 02:49:00,
2013-03-23 19:54:00,45.1,25.0,30.06,East,94,0.0,5.0,45,0.00,,SCT,0.00,VWS V14.01,2013-03-24 02:54:00,
2013-03-23 19:59:00,44.5,22.9,30.06,East,94,2.0,5.0,42,0.00,,SCT,0.00,VWS V14.01,2013-03-24 02:59:00,
2013-03-23 20:04:00,44.0,24.0,30.06,East,96,4.0,5.0,45,0.00,,SCT,0.00,VWS V14.01,2013-03-24 03:04:00,
2013-03-23 20:09:00,43.5,24.1,30.06,ESE,103,2.0,5.0,46,0.00,,SCT,0.00,VWS V14.01,2013-03-24 03:09:00,
2013-03-23 20:14:00,43.0,24.2,30.06,ESE,105,2.0,5.0,47,0.00,,SCT,0.00,VWS V14.01,2013-03-24 03:14:00,
2013-03-23 20:19:00,42.7,24.9,30.06,ESE,109,2.0,5.0,49,0.00,,SCT,0.00,VWS V14.01,2013-03-24 03:19:00,
2013-03-23 20:24:00,42.4,25.1,30.06,ESE,109,2.0,5.0,50,0.00,,SCT,0.00,VWS V14.01,2013-03-24 03:24:00,
2013-03-23 20:29:00,42.3,23.5,30.06,ESE,111,2.0,5.0,47,0.00,,SCT,0.00,VWS V14.01,2013-03-24 03:29:00,
2013-03-23 20:34:00,42.3,23.0,30.07,ESE,111,1.0,1.0,46,0.00,,SCT,0.00,VWS V14.01,2013-03-24 03:34:00,
2013-03-23 20:39:00,42.2,23.4,30.07,ESE,111,0.0,1.0,47,0.00,,SCT,0.00,VWS V14.01,2013-03-24 03:39:00,
2013-03-23 20:44:00,42.0,22.7,30.07,ESE,111,1.0,2.0,46,0.00,,SCT,0.00,VWS V14.01,2013-03-24 03:44:00,
2013-03-23 20:49:00,41.8,23.1,30.07,ESE,111,1.0,2.0,47,0.00,,SCT,0.00,VWS V14.01,2013-03-24 03:49:00,
2013-03-23 20:54:00,41.5,22.8,30.07,ESE,111,1.0,2.0,47,0.00,,SCT,0.00,VWS V14.01,2013-03-24 03:54:00,
2013-03-23 20:59:00,41.4,22.2,30.07,ESE,111,0.0,2.0,46,0.00,,SCT,0.00,VWS V14.01,2013-03-24 03:59:00,
2013-03-23 21:00:00,41.4,21.1,30.07,ESE,111,0.0,2.0,44,0.00,,SCT,0.00,VWS V14.01,2013-03-24 04:00:00,
2013-03-23 21:05:00,41.6,21.3,30.08,ESE,111,0.0,0.0,44,0.00,,SCT,0.00,VWS V14.01,2013-03-24 04:05:00,
2013-03-23 21:10:00,41.7,21.9,30.08,ESE,111,0.0,2.0,45,0.00,,SCT,0.00,VWS V14.01,2013-03-24 04:10:00,
2013-03-23 21:15:00,41.8,22.5,30.07,ESE,111,0.0,1.0,46,0.00,,SCT,0.00,VWS V14.01,2013-03-24 04:15:00,
2013-03-23 21:20:00,41.8,22.0,30.08,ESE,113,0.0,2.0,45,0.00,,SCT,0.00,VWS V14.01,2013-03-24 04:20:00,
2013-03-23 21:25:00,41.9,22.1,30.08,ESE,113,0.0,4.0,45,0.00,,SCT,0.00,VWS V14.01,2013-03-24 04:25:00,
2013-03-23 21:30:00,41.9,21.6,30.08,ESE,113,0.0,0.0,44,0.00,,SCT,0.00,VWS V14.01,2013-03-24 04:30:00,
2013-03-23 21:35:00,42.0,22.2,30.09,ESE,113,0.0,2.0,45,0.00,,SCT,0.00,VWS V14.01,2013-03-24 04:35:00,
2013-03-23 21:40:00,42.1,21.8,30.08,ESE,113,0.0,2.0,44,0.00,,SCT,0.00,VWS V14.01,2013-03-24 04:40:00,
2013-03-23 21:45:00,42.1,23.3,30.09,ESE,113,0.0,0.0,47,0.00,,SCT,0.00,VWS V14.01,2013-03-24 04:45:00,
2013-03-23 21:50:00,42.0,24.2,30.09,ESE,113,0.0,0.0,49,0.00,,SCT,0.00,VWS V14.01,2013-03-24 04:50:00,
2013-03-23 21:55:00,41.8,24.1,30.09,ESE,113,0.0,0.0,49,0.00,,SCT,0.00,VWS V14.01,2013-03-24 04:55:00,
2013-03-23 22:00:00,41.6,24.4,30.09,ESE,113,0.0,0.0,50,0.00,,SCT,0.00,VWS V14.01,2013-03-24 05:00:00,
2013-03-23 22:05:00,41.5,24.3,30.09,ESE,113,0.0,0.0,50,0.00,,SCT,0.00,VWS V14.01,2013-03-24 05:05:00,
2013-03-23 22:10:00,41.6,25.3,30.09,ESE,113,0.0,0.0,52,0.00,,SCT,0.00,VWS V14.01,2013-03-24 05:10:00,
2013-03-23 22:15:00,41.7,25.9,30.09,ESE,113,0.0,0.0,53,0.00,,SCT,0.00,VWS V14.01,2013-03-24 05:15:00,
2013-03-23 22:20:00,41.8,26.4,30.09,ESE,113,0.0,0.0,54,0.00,,SCT,0.00,VWS V14.01,2013-03-24 05:20:00,
2013-03-23 22:25:00,41.9,26.5,30.09,ESE,113,0.0,0.0,54,0.00,,SCT,0.00,VWS V14.01,2013-03-24 05:25:00,
2013-03-23 22:30:00,42.0,27.5,30.09,ESE,113,0.0,0.0,56,0.00,,SCT,0.00,VWS V14.01,2013-03-24 05:30:00,
2013-03-23 22:35:00,42.0,27.9,30.09,ESE,113,0.0,0.0,57,0.00,,SCT,0.00,VWS V14.01,2013-03-24 05:35:00,
2013-03-23 22:40:00,41.9,27.8,30.10,ESE,113,0.0,1.0,57,0.00,,SCT,0.00,VWS V14.01,2013-03-24 05:40:00,
2013-03-23 22:45:00,41.8,28.1,30.10,ESE,113,0.0,1.0,58,0.00,,SCT,0.00,VWS V14.01,2013-03-24 05:45:00,
2013-03-23 22:50:00,41.6,27.9,30.10,ESE,113,0.0,1.0,58,0.00,,SCT,0.00,VWS V14.01,2013-03-24 05:50:00,
2013-03-23 22:55:00,41.3,28.1,30.10,SE,125,2.0,2.0,59,0.00,,SCT,0.00,VWS V14.01,2013-03-24 05:55:00,
2013-03-23 23:00:00,41.1,28.7,30.10,SSW,192,1.0,2.0,61,0.00,,SCT,0.00,VWS V14.01,2013-03-24 06:00:00,
2013-03-23 23:05:00,40.8,28.8,30.10,SSW,192,0.0,2.0,62,0.00,,SCT,0.00,VWS V14.01,2013-03-24 06:05:00,
2013-03-23 23:10:00,40.6,29.8,30.10,SSW,192,1.0,2.0,65,0.00,,SCT,0.00,VWS V14.01,2013-03-24 06:10:00,
2013-03-23 23:15:00,40.5,30.4,30.10,SSW,192,0.0,0.0,67,0.00,,SCT,0.00,VWS V14.01,2013-03-24 06:15:00,
2013-03-23 23:20:00,40.5,31.1,30.10,SSW,192,0.0,1.0,69,0.00,,SCT,0.00,VWS V14.01,2013-03-24 06:20:00,
2013-03-23 23:25:00,40.5,31.5,30.10,SSW,192,0.0,1.0,70,0.00,,SCT,0.00,VWS V14.01,2013-03-24 06:25:00,
2013-03-23 23:30:00,40.5,31.9,30.10,SSW,192,0.0,0.0,71,0.00,,SCT,0.00,VWS V14.01,2013-03-24 06:30:00,
2013-03-23 23:35:00,40.6,32.3,30.10,SSW,192,0.0,1.0,72,0.00,,SCT,0.00,VWS V14.01,2013-03-24 06:35:00,
2013-03-23 23:40:00,40.6,32.6,30.10,SSW,193,0.0,1.0,73,0.00,,SCT,0.00,VWS V14.01,2013-03-24 06:40:00,
2013-03-23 23:45:00,40.6,32.6,30.10,SSW,192,0.0,0.0,73,0.00,,SCT,0.00,VWS V14.01,2013-03-24 06:45:00,
2013-03-23 23:50:00,40.5,32.9,30.10,SSW,192,0.0,1.0,74,0.00,,SCT,0.00,VWS V14.01,2013-03-24 06:50:00,
2013-03-23 23:55:00,40.6,33.0,30.10,SSW,192,0.0,2.0,74,0.00,,SCT,0.00,VWS V14.01,2013-03-24 06:55:00,